Los Angeles, California
Traffic Map
Current Weather Conditions
Los Angeles, California
Clear
Clear
18°
Feels Like: 18°
Wind Chill: 18° Ceiling: Unl
Heat Index: 18° Visibility: 10mi
Dew Point: 16° Wind: 0mph
Humidity: 87% Direction: ° ()
Pressure: 29.87in Gusts: 0mph
Raw Report DataKCQT 220747Z AUTO 00000KT 10SM CLR 18/16 A2987 RMK AO2 SLP112 T01830161 402560183
Traffic Incident Summary
Active as of:
Severity:
Category:
InformationThere was an issue retrieving the traffic information for this location. Please try a different location or try again shortly.
Advertisements
Track Severe Weather on mobile